Time;durP1;ratioP1;P1;durP2;ratioP2;P2;SDS_P1;SDS_P2;PMS_P1;PMS_P2;Temp;Humidity;BMP_temperature;BMP_pressure;BME280_temperature;BME280_humidity;BME280_pressure;Samples;Min_cycle;Max_cycle;Signal;HPM_P1;HPM_P2
2021/01/04 00:00:37;;;;;;;1.60;1.50;;;11.70;99.90;;;;;;5008651;28;20530;-29
2021/01/04 00:03:41;;;;;;;3.77;1.70;;;11.70;99.90;;;;;;5011644;28;20452;-29
2021/01/04 00:06:37;;;;;;;1.77;1.63;;;11.60;99.90;;;;;;5013330;28;20511;-30
2021/01/04 00:09:28;;;;;;;2.03;1.75;;;11.60;99.90;;;;;;5013596;28;20550;-29
2021/01/04 00:12:06;;;;;;;2.42;2.22;;;11.60;99.90;;;;;;5012497;28;20223;-28
2021/01/04 00:14:56;;;;;;;3.17;2.90;;;11.60;99.90;;;;;;5002048;28;20201;-29
2021/01/04 00:17:47;;;;;;;4.00;3.60;;;11.60;99.90;;;;;;4993713;28;20489;-29
2021/01/04 00:20:26;;;;;;;3.00;2.70;;;11.60;99.90;;;;;;4993580;28;20297;-28
2021/01/04 00:23:06;;;;;;;3.37;3.07;;;11.60;99.90;;;;;;4999228;28;20445;-28
2021/01/04 00:25:49;;;;;;;2.80;2.40;;;11.70;99.90;;;;;;5013015;28;20430;-28
2021/01/04 00:28:22;;;;;;;4.17;2.10;;;11.70;99.90;;;;;;5007319;28;20225;-28
2021/01/04 00:30:59;;;;;;;3.78;1.73;;;11.80;99.90;;;;;;5008497;28;20468;-29
2021/01/04 00:33:33;;;;;;;1.97;1.77;;;11.60;99.90;;;;;;5000453;28;20625;-28
2021/01/04 00:36:06;;;;;;;2.30;2.10;;;11.40;99.90;;;;;;5012876;28;20490;-29
2021/01/04 00:39:03;;;;;;;7.35;2.10;;;11.20;99.90;;;;;;5013028;28;20198;-29
2021/01/04 00:41:47;;;;;;;2.50;2.30;;;11.20;99.90;;;;;;5012408;28;20204;-29
2021/01/04 00:44:22;;;;;;;3.10;2.30;;;11.10;99.90;;;;;;5008315;28;20262;-28
2021/01/04 00:47:02;;;;;;;4.00;2.47;;;11.10;99.90;;;;;;5002709;28;20225;-28
2021/01/04 00:49:33;;;;;;;4.50;3.43;;;11.10;99.90;;;;;;5011756;28;20516;-28
2021/01/04 00:52:23;;;;;;;3.87;2.90;;;11.10;99.90;;;;;;5010168;28;20570;-28
2021/01/04 00:55:27;;;;;;;5.25;4.20;;;11.10;99.90;;;;;;5009319;28;20768;-28
2021/01/04 00:58:28;;;;;;;4.80;4.40;;;11.10;99.90;;;;;;5009838;28;20347;-29
2021/01/04 01:01:07;;;;;;;4.47;4.03;;;11.10;99.90;;;;;;5008567;28;20928;-29
2021/01/04 01:04:02;;;;;;;4.07;3.78;;;11.20;99.90;;;;;;5012235;28;20690;-29
2021/01/04 01:06:38;;;;;;;4.37;3.97;;;11.20;99.90;;;;;;4992373;28;20276;-29
2021/01/04 01:09:12;;;;;;;4.80;3.57;;;11.30;99.90;;;;;;4992243;28;20434;-29
2021/01/04 01:12:10;;;;;;;3.93;3.40;;;11.30;99.90;;;;;;4991970;28;20548;-29
2021/01/04 01:14:46;;;;;;;5.17;3.30;;;11.20;99.90;;;;;;4984434;28;20530;-29
2021/01/04 01:18:08;;;;;;;6.43;5.70;;;11.20;99.90;;;;;;4992265;28;20574;-29
2021/01/04 01:20:41;;;;;;;14.50;11.77;;;11.20;99.90;;;;;;4980936;28;20439;-29
2021/01/04 01:23:12;;;;;;;8.02;6.10;;;11.00;99.90;;;;;;5011238;28;20486;-29
2021/01/04 01:25:47;;;;;;;6.53;5.93;;;11.00;99.90;;;;;;5011216;28;20205;-29
2021/01/04 01:28:46;;;;;;;5.80;4.90;;;11.00;99.90;;;;;;5011188;28;20229;-29
2021/01/04 01:31:43;;;;;;;4.60;3.60;;;11.10;99.90;;;;;;5010264;28;20449;-29
2021/01/04 01:34:31;;;;;;;6.18;5.40;;;11.00;99.90;;;;;;5011623;28;20530;-29
2021/01/04 01:37:25;;;;;;;5.22;4.15;;;11.10;99.90;;;;;;5011992;28;20217;-28
2021/01/04 01:40:30;;;;;;;4.35;3.70;;;11.10;99.90;;;;;;5016108;28;20204;-30
2021/01/04 01:43:24;;;;;;;5.93;4.00;;;11.00;99.90;;;;;;5010934;28;20198;-29
2021/01/04 01:46:00;;;;;;;3.53;3.10;;;11.00;99.90;;;;;;5010818;28;20453;-29
2021/01/04 01:48:46;;;;;;;5.40;3.78;;;11.10;99.90;;;;;;5011154;28;20193;-29
2021/01/04 01:51:42;;;;;;;4.90;3.33;;;10.90;99.90;;;;;;5021168;28;20210;-28
2021/01/04 01:54:28;;;;;;;4.13;3.73;;;10.90;99.90;;;;;;5008832;28;20213;-28
2021/01/04 01:57:22;;;;;;;4.13;3.72;;;11.00;99.90;;;;;;5009958;28;20480;-28
2021/01/04 02:00:09;;;;;;;4.30;3.90;;;11.00;99.90;;;;;;5004954;28;20301;-28
2021/01/04 02:02:45;;;;;;;4.10;3.70;;;11.00;99.90;;;;;;4998821;28;20451;-28
2021/01/04 02:05:28;;;;;;;7.03;5.32;;;11.00;99.90;;;;;;5010823;28;20656;-28
2021/01/04 02:08:01;;;;;;;4.97;4.10;;;11.00;99.90;;;;;;4996788;28;20602;-28
2021/01/04 02:10:35;;;;;;;5.07;4.57;;;10.90;99.90;;;;;;5009654;28;20437;-29
2021/01/04 02:13:12;;;;;;;6.60;5.60;;;10.70;99.90;;;;;;5009896;28;20233;-28
2021/01/04 02:15:51;;;;;;;9.60;6.20;;;10.60;99.90;;;;;;5010412;28;20220;-28
2021/01/04 02:18:36;;;;;;;4.82;4.43;;;10.70;99.90;;;;;;5004828;28;20907;-29
2021/01/04 02:21:42;;;;;;;4.43;3.85;;;10.80;99.90;;;;;;4992383;28;20253;-29
2021/01/04 02:24:14;;;;;;;3.95;3.55;;;10.70;99.90;;;;;;4999523;28;20297;-28
2021/01/04 02:26:48;;;;;;;6.15;5.05;;;10.60;99.90;;;;;;5007704;28;20213;-27
2021/01/04 02:29:20;;;;;;;6.00;4.65;;;10.50;99.90;;;;;;5008861;28;20279;-28
2021/01/04 02:31:53;;;;;;;6.32;5.72;;;10.40;99.90;;;;;;5023470;28;20189;-28
2021/01/04 02:34:26;;;;;;;7.15;5.55;;;10.30;99.90;;;;;;5024789;28;20224;-28
2021/01/04 02:36:58;;;;;;;7.30;5.85;;;10.10;99.90;;;;;;5009521;28;20229;-29
2021/01/04 02:39:36;;;;;;;10.00;6.47;;;10.20;99.90;;;;;;5009863;28;20225;-28
2021/01/04 02:42:10;;;;;;;7.43;6.30;;;10.20;99.90;;;;;;5010457;28;20502;-28
2021/01/04 02:44:42;;;;;;;8.40;7.32;;;10.30;99.90;;;;;;5009450;28;20339;-28
2021/01/04 02:47:42;;;;;;;9.07;8.18;;;10.30;99.90;;;;;;5007268;28;20656;-28
2021/01/04 02:50:29;;;;;;;8.60;7.60;;;10.40;99.90;;;;;;4999814;28;20190;-31
2021/01/04 02:53:11;;;;;;;8.77;7.72;;;10.30;99.90;;;;;;4999590;28;20203;-29
2021/01/04 02:55:53;;;;;;;8.75;7.85;;;10.20;99.90;;;;;;5001736;28;20573;-29
2021/01/04 02:58:36;;;;;;;9.65;8.35;;;10.10;99.90;;;;;;5009649;28;20288;-29
2021/01/04 03:01:09;;;;;;;11.60;8.93;;;10.00;99.90;;;;;;5007836;28;20239;-30
2021/01/04 03:03:41;;;;;;;10.18;9.05;;;10.10;99.90;;;;;;5008771;28;20520;-31
2021/01/04 03:06:19;;;;;;;11.85;8.98;;;10.10;99.90;;;;;;5009436;28;20281;-30
2021/01/04 03:08:49;;;;;;;11.93;10.10;;;10.00;99.90;;;;;;5007640;28;20193;-30
2021/01/04 03:11:24;;;;;;;10.85;9.85;;;10.00;99.90;;;;;;5001189;28;20208;-29
2021/01/04 03:13:57;;;;;;;12.07;10.30;;;10.00;99.90;;;;;;5000169;28;20202;-29
2021/01/04 03:16:39;;;;;;;11.95;9.98;;;9.90;99.90;;;;;;5005419;28;20259;-29
2021/01/04 03:19:13;;;;;;;10.20;9.05;;;9.80;99.90;;;;;;5000021;28;20326;-30
2021/01/04 03:21:43;;;;;;;12.13;10.82;;;9.80;99.90;;;;;;5009716;28;20291;-30
2021/01/04 03:24:16;;;;;;;11.75;10.30;;;9.80;99.90;;;;;;4994906;28;20208;-31
2021/01/04 03:26:50;;;;;;;15.15;13.23;;;9.80;99.90;;;;;;5008898;28;20209;-29
2021/01/04 03:29:20;;;;;;;15.85;14.35;;;9.80;99.90;;;;;;5008993;28;20594;-29
2021/01/04 03:31:50;;;;;;;15.90;13.23;;;9.80;99.90;;;;;;5010094;28;20199;-29
2021/01/04 03:34:20;;;;;;;16.48;14.85;;;9.80;99.90;;;;;;5007545;28;20200;-30
2021/01/04 03:36:50;;;;;;;16.52;13.55;;;9.80;99.90;;;;;;4989980;28;20275;-29
2021/01/04 03:39:21;;;;;;;15.38;13.43;;;9.70;99.90;;;;;;5002196;28;20231;-29
2021/01/04 03:41:52;;;;;;;12.15;10.98;;;9.70;99.90;;;;;;4990199;28;20243;-30
2021/01/04 03:44:22;;;;;;;10.43;8.98;;;9.70;99.90;;;;;;4989345;28;20201;-29
2021/01/04 03:46:52;;;;;;;8.40;7.30;;;9.60;99.90;;;;;;4996214;28;20202;-29
2021/01/04 03:49:23;;;;;;;7.82;7.10;;;9.50;99.90;;;;;;5009651;28;20200;-29
2021/01/04 03:51:54;;;;;;;7.75;6.00;;;9.60;99.90;;;;;;5010019;28;20199;-29
2021/01/04 03:54:25;;;;;;;8.20;7.40;;;9.50;99.90;;;;;;5009337;28;20282;-29
2021/01/04 03:56:57;;;;;;;6.53;5.80;;;9.50;99.90;;;;;;5001862;28;20306;-28
2021/01/04 03:59:27;;;;;;;7.57;6.18;;;9.50;99.90;;;;;;5008492;28;20187;-28
2021/01/04 04:01:58;;;;;;;6.80;6.10;;;9.50;99.90;;;;;;5009640;28;20653;-28
2021/01/04 04:04:28;;;;;;;7.57;6.90;;;9.50;99.90;;;;;;5008171;28;20520;-28
2021/01/04 04:06:58;;;;;;;6.80;6.20;;;9.50;99.90;;;;;;4998500;28;20226;-28
2021/01/04 04:09:29;;;;;;;7.55;6.80;;;9.50;99.90;;;;;;5009121;28;20203;-28
2021/01/04 04:12:00;;;;;;;6.88;6.28;;;9.60;99.90;;;;;;5008587;28;20235;-28
2021/01/04 04:14:30;;;;;;;6.05;5.45;;;9.50;99.90;;;;;;5008133;28;20234;-29
2021/01/04 04:17:00;;;;;;;6.78;5.40;;;9.60;99.90;;;;;;5017470;28;20218;-28
2021/01/04 04:19:30;;;;;;;5.45;4.45;;;9.60;99.90;;;;;;5007703;28;20299;-28
2021/01/04 04:22:00;;;;;;;5.22;4.82;;;9.50;99.90;;;;;;5018248;28;20261;-27
2021/01/04 04:24:30;;;;;;;6.45;4.35;;;9.50;99.90;;;;;;5024139;28;20203;-28
2021/01/04 04:27:02;;;;;;;4.30;3.97;;;9.50;99.90;;;;;;5008245;28;20294;-28
2021/01/04 04:29:32;;;;;;;7.93;4.75;;;9.50;99.90;;;;;;5008728;28;20200;-28
2021/01/04 04:32:02;;;;;;;5.05;4.10;;;9.50;99.90;;;;;;5009342;28;20536;-28
2021/01/04 04:34:32;;;;;;;4.60;3.80;;;9.50;99.90;;;;;;5008360;28;20205;-28
2021/01/04 04:37:03;;;;;;;4.40;3.40;;;9.50;99.90;;;;;;5007474;28;20226;-28
2021/01/04 04:39:33;;;;;;;12.43;5.47;;;9.50;99.90;;;;;;4997400;28;20199;-28
2021/01/04 04:42:08;;;;;;;4.82;4.15;;;9.50;99.90;;;;;;5006278;28;20207;-28
2021/01/04 04:44:46;;;;;;;4.70;4.30;;;9.60;99.90;;;;;;5008112;28;20199;-28
2021/01/04 04:47:37;;;;;;;4.72;4.30;;;9.50;99.90;;;;;;5008790;28;20223;-28
2021/01/04 04:50:20;;;;;;;4.30;3.90;;;9.40;99.90;;;;;;5012390;28;20199;-28
2021/01/04 04:53:19;;;;;;;4.72;4.28;;;9.50;99.90;;;;;;5012378;28;20198;-28
2021/01/04 04:56:14;;;;;;;5.28;4.78;;;9.50;99.90;;;;;;5009760;28;20214;-27
2021/01/04 04:58:55;;;;;;;4.57;4.18;;;9.50;99.90;;;;;;5006932;28;20223;-28
2021/01/04 05:01:40;;;;;;;4.57;4.18;;;9.50;99.90;;;;;;5011947;28;20206;-28
2021/01/04 05:04:28;;;;;;;5.85;4.75;;;9.50;99.90;;;;;;5012124;28;20560;-28
2021/01/04 05:07:00;;;;;;;5.10;4.65;;;9.40;99.90;;;;;;5012041;28;20250;-28
2021/01/04 05:09:56;;;;;;;5.18;4.68;;;9.40;99.90;;;;;;5011388;28;20292;-28
2021/01/04 05:12:37;;;;;;;6.88;4.72;;;9.50;99.90;;;;;;5008268;28;20228;-28
2021/01/04 05:15:21;;;;;;;4.32;3.92;;;9.50;99.90;;;;;;5011803;28;20212;-28
2021/01/04 05:18:23;;;;;;;4.00;3.60;;;9.50;99.90;;;;;;5012015;28;20266;-28
2021/01/04 05:21:28;;;;;;;4.00;3.58;;;9.60;99.90;;;;;;4995579;28;20219;-28
2021/01/04 05:24:38;;;;;;;4.85;3.03;;;9.60;99.90;;;;;;5000696;28;20542;-28
2021/01/04 05:27:54;;;;;;;4.35;3.17;;;9.70;99.90;;;;;;4933547;29;20237;-28
2021/01/04 05:30:51;;;;;;;2.95;2.65;;;9.70;99.90;;;;;;4991758;28;20192;-28
2021/01/04 05:33:59;;;;;;;2.65;2.45;;;9.70;99.90;;;;;;5005443;28;20554;-28
2021/01/04 05:37:00;;;;;;;2.58;2.35;;;9.70;99.90;;;;;;4956650;28;20211;-28
2021/01/04 05:39:52;;;;;;;4.57;2.38;;;9.70;99.90;;;;;;4956073;28;20224;-28
2021/01/04 05:43:02;;;;;;;4.10;2.30;;;9.80;99.90;;;;;;5011207;28;20298;-28
2021/01/04 05:45:39;;;;;;;2.80;2.58;;;9.80;99.90;;;;;;4998562;28;20212;-28
2021/01/04 05:48:17;;;;;;;2.30;2.10;;;9.70;99.90;;;;;;5011286;28;20204;-28
2021/01/04 05:50:57;;;;;;;2.10;1.90;;;9.70;99.90;;;;;;5009021;28;20208;-28
2021/01/04 05:53:27;;;;;;;2.13;1.98;;;9.60;99.90;;;;;;4998739;28;20295;-28
2021/01/04 05:55:57;;;;;;;2.67;2.08;;;9.70;99.90;;;;;;5010767;28;20274;-28
2021/01/04 05:58:30;;;;;;;2.72;2.50;;;9.60;99.90;;;;;;5010590;28;20268;-28
2021/01/04 06:01:12;;;;;;;2.83;2.50;;;9.60;99.90;;;;;;5009179;28;20214;-28
2021/01/04 06:03:42;;;;;;;3.08;2.30;;;9.60;99.90;;;;;;5006667;28;20199;-28
2021/01/04 06:06:22;;;;;;;3.08;2.67;;;9.70;99.90;;;;;;5009248;28;20214;-28
2021/01/04 06:09:06;;;;;;;2.47;2.28;;;9.60;99.90;;;;;;5010926;28;20191;-28
2021/01/04 06:11:47;;;;;;;1.65;1.55;;;9.60;99.90;;;;;;5002886;28;20219;-29
2021/01/04 06:14:17;;;;;;;2.83;2.60;;;9.70;99.90;;;;;;5009882;28;20215;-28
2021/01/04 06:16:57;;;;;;;2.95;2.50;;;9.80;99.90;;;;;;5011313;28;20199;-27
2021/01/04 06:19:29;;;;;;;2.58;2.38;;;9.70;99.90;;;;;;5008184;28;20214;-28
2021/01/04 06:22:01;;;;;;;2.67;2.47;;;9.70;99.90;;;;;;5011046;28;20200;-28
2021/01/04 06:24:34;;;;;;;3.75;1.90;;;9.70;99.90;;;;;;5000834;28;20243;-28
2021/01/04 06:27:10;;;;;;;2.33;2.13;;;9.70;99.90;;;;;;5009495;28;20226;-28
2021/01/04 06:29:43;;;;;;;2.40;2.20;;;9.80;99.90;;;;;;5009641;28;20207;-28
2021/01/04 06:32:27;;;;;;;2.05;1.92;;;9.80;99.90;;;;;;5010314;28;20349;-28
2021/01/04 06:35:00;;;;;;;2.80;2.17;;;9.70;99.90;;;;;;5004396;28;20628;-28
2021/01/04 06:37:32;;;;;;;2.30;2.10;;;9.80;99.90;;;;;;5010007;28;20691;-28
2021/01/04 06:40:06;;;;;;;2.40;2.20;;;9.80;99.90;;;;;;5010702;28;20667;-28
2021/01/04 06:42:40;;;;;;;2.40;2.10;;;9.80;99.90;;;;;;5010271;28;20217;-28
2021/01/04 06:45:20;;;;;;;2.08;1.92;;;9.80;99.90;;;;;;5009700;28;20600;-28
2021/01/04 06:48:06;;;;;;;2.30;2.10;;;9.80;99.90;;;;;;5003805;28;20261;-27
2021/01/04 06:50:46;;;;;;;2.42;2.22;;;9.80;99.90;;;;;;5009290;28;20201;-28
2021/01/04 06:53:46;;;;;;;3.63;2.20;;;9.90;99.90;;;;;;5010334;28;20314;-28
2021/01/04 06:56:57;;;;;;;3.95;2.35;;;9.90;99.90;;;;;;4981794;28;20636;-29
2021/01/04 06:59:46;;;;;;;2.85;2.60;;;10.00;99.90;;;;;;5005770;28;20245;-28
2021/01/04 07:02:51;;;;;;;3.10;2.80;;;10.00;99.90;;;;;;5005986;28;20549;-28
2021/01/04 07:06:04;;;;;;;3.58;2.40;;;10.00;99.90;;;;;;4971131;28;20698;-28
2021/01/04 07:08:55;;;;;;;2.90;2.10;;;10.00;99.90;;;;;;5008676;28;20212;-28
2021/01/04 07:11:37;;;;;;;2.70;2.50;;;9.90;99.90;;;;;;5007023;28;20288;-28
2021/01/04 07:14:48;;;;;;;2.40;2.20;;;10.00;99.90;;;;;;5010043;28;20216;-28
2021/01/04 07:17:42;;;;;;;2.80;2.47;;;9.90;99.90;;;;;;4997227;28;20215;-28
2021/01/04 07:20:26;;;;;;;2.30;2.10;;;9.80;99.90;;;;;;5009591;28;20199;-28
2021/01/04 07:23:09;;;;;;;2.92;2.30;;;9.80;99.90;;;;;;5008074;28;20204;-28
2021/01/04 07:25:49;;;;;;;5.60;2.55;;;9.80;99.90;;;;;;5009230;28;20203;-28
2021/01/04 07:28:40;;;;;;;3.67;3.00;;;9.80;99.90;;;;;;5009089;28;20227;-28
2021/01/04 07:31:19;;;;;;;2.78;2.47;;;9.90;99.90;;;;;;5008445;28;20199;-28
2021/01/04 07:33:55;;;;;;;2.80;2.60;;;9.90;99.90;;;;;;4993794;28;20651;-28
2021/01/04 07:36:33;;;;;;;3.35;3.05;;;9.90;99.90;;;;;;5008760;28;20644;-28
2021/01/04 07:39:23;;;;;;;3.00;2.70;;;9.90;99.90;;;;;;5009482;28;20696;-27
2021/01/04 07:42:07;;;;;;;3.35;2.95;;;9.90;99.90;;;;;;5007305;28;20250;-28
2021/01/04 07:45:08;;;;;;;2.90;2.70;;;9.90;99.90;;;;;;5009468;28;20203;-29
2021/01/04 07:48:15;;;;;;;3.17;2.85;;;10.00;99.90;;;;;;5009342;28;20273;-30
2021/01/04 07:51:29;;;;;;;2.42;2.22;;;10.00;99.90;;;;;;5001076;28;20718;-28
2021/01/04 07:54:31;;;;;;;2.03;1.85;;;10.00;99.90;;;;;;4973139;28;20341;-28
2021/01/04 07:57:35;;;;;;;1.80;1.70;;;10.00;99.90;;;;;;4994239;28;20290;-29
2021/01/04 08:00:39;;;;;;;2.03;1.80;;;10.00;99.90;;;;;;5006340;28;20200;-29
2021/01/04 08:03:50;;;;;;;2.70;1.58;;;10.00;99.90;;;;;;5009336;28;20200;-28
2021/01/04 08:07:08;;;;;;;1.70;1.60;;;10.10;99.90;;;;;;5007125;28;20555;-29
2021/01/04 08:10:00;;;;;;;1.90;1.70;;;10.10;99.90;;;;;;4967269;28;20318;-29
2021/01/04 08:13:11;;;;;;;1.70;1.60;;;10.00;99.90;;;;;;4957180;28;20609;-29
2021/01/04 08:15:44;;;;;;;1.90;1.70;;;10.10;99.90;;;;;;5006198;28;20306;-29
2021/01/04 08:18:17;;;;;;;1.98;1.67;;;10.10;99.90;;;;;;5008979;28;20310;-29
2021/01/04 08:20:53;;;;;;;1.35;1.08;;;10.10;99.90;;;;;;5009426;28;20262;-29
2021/01/04 08:23:51;;;;;;;1.63;1.52;;;10.10;99.90;;;;;;5010160;28;20413;-29
2021/01/04 08:26:39;;;;;;;1.65;1.55;;;10.10;99.90;;;;;;5011630;28;20661;-29
2021/01/04 08:29:14;;;;;;;1.17;1.08;;;10.10;99.90;;;;;;5012916;28;20196;-29
2021/01/04 08:32:06;;;;;;;1.60;1.50;;;10.00;99.90;;;;;;5012528;28;20207;-29
2021/01/04 08:34:40;;;;;;;2.42;1.83;;;10.10;99.90;;;;;;5012544;28;20201;-29
2021/01/04 08:37:11;;;;;;;1.65;1.55;;;10.00;99.90;;;;;;5012938;28;20257;-29
2021/01/04 08:39:44;;;;;;;1.73;1.60;;;10.00;99.90;;;;;;5012175;28;20200;-29
2021/01/04 08:42:36;;;;;;;2.08;1.50;;;10.00;99.90;;;;;;5012525;28;20744;-29
2021/01/04 08:45:09;;;;;;;1.52;1.42;;;10.00;99.90;;;;;;5008192;28;20262;-29
2021/01/04 08:47:49;;;;;;;1.83;1.70;;;10.00;99.90;;;;;;5010936;28;20228;-29
2021/01/04 08:50:36;;;;;;;2.40;1.50;;;10.00;99.90;;;;;;5012371;28;20596;-29
2021/01/04 08:53:22;;;;;;;1.50;1.40;;;10.00;99.90;;;;;;5012019;28;20211;-29
2021/01/04 08:55:53;;;;;;;2.00;1.33;;;10.10;99.90;;;;;;5011722;28;20255;-29
2021/01/04 08:58:39;;;;;;;1.92;1.73;;;10.10;99.90;;;;;;5006106;28;20221;-29
2021/01/04 09:01:22;;;;;;;2.10;1.95;;;10.10;99.90;;;;;;5011683;28;20192;-29
2021/01/04 09:04:03;;;;;;;1.42;1.33;;;10.10;99.90;;;;;;5008823;28;20266;-29
2021/01/04 09:06:36;;;;;;;1.73;1.60;;;10.00;99.90;;;;;;5011009;28;20201;-29
2021/01/04 09:09:16;;;;;;;2.70;1.98;;;10.00;99.90;;;;;;5012023;28;20238;-28
2021/01/04 09:12:04;;;;;;;2.05;1.70;;;10.00;99.90;;;;;;5008757;28;20204;-28
2021/01/04 09:14:46;;;;;;;2.38;2.10;;;9.90;99.90;;;;;;5001760;28;20258;-28
2021/01/04 09:17:27;;;;;;;2.03;1.70;;;10.00;99.90;;;;;;5011825;28;20206;-28
2021/01/04 09:20:30;;;;;;;2.20;1.90;;;9.90;99.90;;;;;;5009959;28;20207;-28
2021/01/04 09:23:09;;;;;;;1.40;1.30;;;9.90;99.90;;;;;;4997749;28;20223;-28
2021/01/04 09:25:52;;;;;;;2.45;1.67;;;9.90;99.90;;;;;;5011455;28;20659;-29
2021/01/04 09:28:24;;;;;;;1.90;1.65;;;10.00;99.90;;;;;;5003952;28;20231;-28
2021/01/04 09:30:56;;;;;;;2.25;1.55;;;9.90;99.90;;;;;;5011465;28;20200;-29
2021/01/04 09:33:26;;;;;;;2.55;2.20;;;9.90;99.90;;;;;;5009378;28;20210;-28
2021/01/04 09:36:04;;;;;;;2.08;1.88;;;10.00;99.90;;;;;;5010478;28;20193;-29
2021/01/04 09:38:51;;;;;;;2.65;1.60;;;10.00;99.90;;;;;;5008762;28;20282;-29
2021/01/04 09:41:22;;;;;;;2.03;1.45;;;10.10;99.90;;;;;;5004219;28;20191;-29
2021/01/04 09:44:02;;;;;;;2.20;1.50;;;10.10;99.90;;;;;;5011537;28;20208;-28
2021/01/04 09:46:44;;;;;;;1.67;1.52;;;10.10;99.90;;;;;;5011295;28;20195;-28
2021/01/04 09:49:18;;;;;;;2.35;1.95;;;10.10;99.90;;;;;;5011514;28;20199;-29
2021/01/04 09:51:51;;;;;;;1.60;1.50;;;10.10;99.90;;;;;;5006648;28;20195;-29
2021/01/04 09:54:26;;;;;;;1.83;1.58;;;10.10;99.90;;;;;;5010390;28;20192;-28
2021/01/04 09:57:01;;;;;;;1.95;1.48;;;10.10;99.90;;;;;;5007410;28;20203;-27
2021/01/04 09:59:31;;;;;;;1.55;1.45;;;10.10;99.90;;;;;;5010125;28;20752;-29
2021/01/04 10:02:03;;;;;;;1.90;1.67;;;10.10;99.90;;;;;;5009178;28;20216;-28
2021/01/04 10:04:37;;;;;;;1.60;1.50;;;10.10;99.90;;;;;;5014605;28;20196;-28
2021/01/04 10:07:11;;;;;;;1.88;1.73;;;10.10;99.90;;;;;;5011032;28;20200;-28
2021/01/04 10:09:49;;;;;;;6.97;1.80;;;10.10;99.90;;;;;;5008832;28;20200;-28
2021/01/04 10:12:23;;;;;;;2.80;2.45;;;10.00;99.90;;;;;;5006853;28;20228;-28
2021/01/04 10:15:02;;;;;;;1.30;1.20;;;10.00;99.90;;;;;;5002702;28;20263;-28
2021/01/04 10:17:40;;;;;;;1.95;1.40;;;10.00;99.90;;;;;;5009048;28;20200;-28
2021/01/04 10:20:23;;;;;;;1.42;1.33;;;10.00;99.90;;;;;;5007703;28;20203;-28
2021/01/04 10:22:56;;;;;;;3.38;2.10;;;10.10;99.90;;;;;;5010925;28;20199;-28
2021/01/04 10:25:36;;;;;;;1.65;1.45;;;10.00;99.90;;;;;;5010963;28;20210;-28
2021/01/04 10:28:08;;;;;;;1.40;1.30;;;9.90;99.90;;;;;;5006966;28;20210;-28
2021/01/04 10:30:38;;;;;;;1.88;1.60;;;9.90;99.90;;;;;;5009930;28;20200;-29
2021/01/04 10:33:20;;;;;;;1.55;1.45;;;9.90;99.90;;;;;;5010462;28;20203;-28
2021/01/04 10:36:07;;;;;;;1.25;1.15;;;9.90;99.90;;;;;;5002583;28;20192;-28
2021/01/04 10:38:42;;;;;;;1.30;1.20;;;9.90;99.90;;;;;;5010616;28;20222;-28
2021/01/04 10:41:14;;;;;;;1.90;1.70;;;9.90;99.90;;;;;;5006157;28;20260;-28
2021/01/04 10:43:51;;;;;;;1.45;1.33;;;10.00;99.90;;;;;;5010457;28;20199;-28
2021/01/04 10:46:33;;;;;;;4.10;1.58;;;10.00;99.90;;;;;;5009369;28;20570;-29
2021/01/04 10:49:07;;;;;;;1.60;1.45;;;9.90;99.90;;;;;;5001088;28;20196;-28
2021/01/04 10:51:40;;;;;;;1.27;1.17;;;9.80;99.90;;;;;;5009756;28;20227;-28
2021/01/04 10:54:18;;;;;;;1.35;1.25;;;9.80;99.90;;;;;;5009964;28;20287;-28
2021/01/04 10:57:01;;;;;;;1.33;1.20;;;9.70;99.90;;;;;;5009425;28;20261;-28
2021/01/04 10:59:38;;;;;;;1.80;1.20;;;9.70;99.90;;;;;;5009695;28;20227;-28
2021/01/04 11:02:10;;;;;;;1.55;1.45;;;9.70;99.90;;;;;;5010229;28;20215;-28
2021/01/04 11:04:41;;;;;;;1.45;1.17;;;9.60;99.90;;;;;;5009787;28;20640;-27
2021/01/04 11:07:28;;;;;;;1.98;1.50;;;9.60;99.90;;;;;;5009930;28;20209;-28
2021/01/04 11:10:08;;;;;;;1.70;1.60;;;9.60;99.90;;;;;;5002452;28;20238;-27
2021/01/04 11:12:47;;;;;;;1.40;1.30;;;9.50;99.90;;;;;;5009147;28;20667;-27
2021/01/04 11:15:26;;;;;;;1.25;1.08;;;9.50;99.90;;;;;;5009115;28;20199;-27
2021/01/04 11:18:02;;;;;;;1.80;1.00;;;9.50;99.90;;;;;;5009292;28;20344;-28
2021/01/04 11:20:33;;;;;;;1.50;1.35;;;9.50;99.90;;;;;;5009440;28;20212;-28
2021/01/04 11:23:06;;;;;;;1.45;1.25;;;9.50;99.90;;;;;;5002307;28;20246;-28
2021/01/04 11:25:37;;;;;;;1.73;1.50;;;9.50;99.90;;;;;;5009641;28;20281;-28
2021/01/04 11:28:07;;;;;;;1.45;1.35;;;9.50;99.90;;;;;;5009089;28;20229;-28
2021/01/04 11:30:53;;;;;;;1.58;1.30;;;9.50;99.90;;;;;;5008791;28;20200;-28
2021/01/04 11:33:26;;;;;;;1.45;0.82;;;9.50;99.90;;;;;;5009804;28;20282;-28
2021/01/04 11:35:58;;;;;;;1.50;1.05;;;9.50;99.90;;;;;;5009639;28;20564;-28
2021/01/04 11:38:28;;;;;;;7.90;2.15;;;9.50;99.90;;;;;;4994925;28;20218;-28
2021/01/04 11:40:59;;;;;;;1.75;1.00;;;9.50;99.90;;;;;;4999370;28;20227;-29
2021/01/04 11:43:29;;;;;;;1.17;1.08;;;9.50;99.90;;;;;;5009050;28;20207;-28
2021/01/04 11:45:59;;;;;;;0.93;0.80;;;9.40;99.90;;;;;;5009010;28;20215;-29
2021/01/04 11:48:29;;;;;;;1.20;1.10;;;9.40;99.90;;;;;;5009447;28;20231;-28
2021/01/04 11:51:00;;;;;;;0.90;0.90;;;9.40;99.90;;;;;;5009558;28;20219;-29
2021/01/04 11:53:31;;;;;;;1.15;0.88;;;9.40;99.90;;;;;;5008997;28;20662;-29
2021/01/04 11:56:01;;;;;;;1.33;1.23;;;9.30;99.90;;;;;;5009022;28;20203;-29
2021/01/04 11:58:39;;;;;;;2.90;1.58;;;9.30;99.90;;;;;;5001424;28;20281;-29
2021/01/04 12:01:09;;;;;;;1.40;1.30;;;9.30;99.90;;;;;;5012925;28;20353;-28
2021/01/04 12:03:40;;;;;;;1.85;1.55;;;9.30;99.90;;;;;;5013768;28;20203;-29
2021/01/04 12:06:12;;;;;;;1.80;1.00;;;9.30;99.90;;;;;;5012853;28;20250;-29
2021/01/04 12:08:42;;;;;;;1.70;0.77;;;9.30;99.90;;;;;;5012978;28;20196;-28
2021/01/04 12:11:12;;;;;;;1.05;0.90;;;9.30;99.90;;;;;;5012940;28;20214;-28
2021/01/04 12:13:43;;;;;;;1.83;1.40;;;9.30;99.90;;;;;;5009584;28;20227;-29
2021/01/04 12:16:13;;;;;;;1.60;0.80;;;9.40;99.90;;;;;;5006322;28;20278;-28
2021/01/04 12:18:43;;;;;;;1.00;0.80;;;9.20;99.90;;;;;;5012113;28;20227;-28
2021/01/04 12:21:20;;;;;;;1.33;0.95;;;9.20;99.90;;;;;;5007477;28;20551;-28
2021/01/04 12:23:51;;;;;;;0.75;0.75;;;9.20;99.90;;;;;;5013144;28;20203;-28
2021/01/04 12:26:22;;;;;;;1.52;0.98;;;9.20;99.90;;;;;;5012476;28;20227;-27
2021/01/04 12:28:52;;;;;;;0.98;0.80;;;9.20;99.90;;;;;;5012789;28;20229;-28
2021/01/04 12:31:22;;;;;;;1.05;0.88;;;9.20;99.90;;;;;;5012249;28;20207;-28
2021/01/04 12:33:52;;;;;;;0.80;0.70;;;9.20;99.90;;;;;;5012388;28;20765;-28
2021/01/04 12:36:26;;;;;;;1.00;0.90;;;9.20;99.90;;;;;;5012753;28;20663;-28
2021/01/04 12:38:57;;;;;;;0.90;0.90;;;9.30;99.90;;;;;;5003261;28;20600;-28
2021/01/04 12:41:27;;;;;;;1.75;1.08;;;9.30;99.90;;;;;;5012275;28;20203;-28
2021/01/04 12:43:57;;;;;;;1.35;1.00;;;9.30;99.90;;;;;;5012381;28;20542;-28
2021/01/04 12:46:27;;;;;;;1.60;0.95;;;9.20;99.90;;;;;;5011701;28;20338;-28
2021/01/04 12:48:58;;;;;;;3.00;0.90;;;9.20;99.90;;;;;;5002681;28;20569;-28
2021/01/04 12:51:29;;;;;;;2.25;1.00;;;9.10;99.90;;;;;;5009724;28;20192;-29
2021/01/04 12:53:59;;;;;;;2.13;1.20;;;9.10;99.90;;;;;;5012577;28;20199;-29
2021/01/04 12:56:29;;;;;;;1.15;1.05;;;9.20;99.90;;;;;;5025448;28;20207;-28
2021/01/04 12:58:59;;;;;;;1.48;1.30;;;9.10;99.90;;;;;;5013588;28;20552;-28
2021/01/04 13:01:29;;;;;;;1.35;1.10;;;9.00;99.90;;;;;;5011519;28;20533;-28
2021/01/04 13:03:59;;;;;;;2.15;1.35;;;9.10;99.90;;;;;;5012543;28;20519;-28
2021/01/04 13:06:33;;;;;;;1.20;1.10;;;9.10;99.90;;;;;;5012307;28;20199;-28
2021/01/04 13:09:04;;;;;;;1.45;0.90;;;9.10;99.90;;;;;;5011590;28;20281;-28
2021/01/04 13:11:34;;;;;;;1.10;1.00;;;9.10;99.90;;;;;;5011330;28;20192;-28
2021/01/04 13:14:04;;;;;;;1.65;1.40;;;9.20;99.90;;;;;;5013144;28;20606;-27
2021/01/04 13:16:37;;;;;;;0.90;0.80;;;9.20;99.90;;;;;;5012386;28;20203;-28
2021/01/04 13:19:09;;;;;;;1.67;1.30;;;9.10;99.90;;;;;;5011728;28;20238;-28
2021/01/04 13:21:41;;;;;;;1.15;1.13;;;9.10;99.90;;;;;;5011966;28;20199;-28
2021/01/04 13:24:14;;;;;;;0.88;0.88;;;9.10;99.90;;;;;;5012026;28;20195;-28
2021/01/04 13:26:45;;;;;;;3.55;0.90;;;9.10;99.90;;;;;;5011562;28;20240;-28
2021/01/04 13:29:17;;;;;;;0.95;0.80;;;9.10;99.90;;;;;;4998456;28;20203;-28
2021/01/04 13:31:48;;;;;;;1.67;1.58;;;9.10;99.90;;;;;;5008476;28;20250;-28
2021/01/04 13:34:18;;;;;;;2.08;1.00;;;9.10;99.90;;;;;;5011728;28;20209;-28
2021/01/04 13:36:52;;;;;;;4.68;1.48;;;9.20;99.90;;;;;;5012073;28;20481;-28
2021/01/04 13:39:23;;;;;;;0.85;0.85;;;9.10;99.90;;;;;;4999430;28;20604;-28
2021/01/04 13:41:54;;;;;;;3.30;1.10;;;9.20;99.90;;;;;;5008557;28;20195;-28
2021/01/04 13:44:26;;;;;;;2.58;1.45;;;9.10;99.90;;;;;;5011145;28;20207;-28
2021/01/04 13:47:00;;;;;;;1.10;1.00;;;9.10;99.90;;;;;;5004573;28;20200;-28
2021/01/04 13:49:30;;;;;;;1.65;1.05;;;9.20;99.90;;;;;;5010835;28;20258;-28
2021/01/04 13:52:01;;;;;;;1.00;0.80;;;9.20;99.90;;;;;;5011005;28;20563;-28
2021/01/04 13:54:31;;;;;;;1.63;1.27;;;9.20;99.90;;;;;;5011124;28;20586;-28
2021/01/04 13:57:01;;;;;;;1.13;0.90;;;9.20;99.90;;;;;;5008835;28;20644;-28